createdAt,value
2022-08-03T00:01:18.366Z,50.16
2022-08-03T00:06:23.936Z,50.19
2022-08-03T00:11:30.417Z,50.29
2022-08-03T00:16:36.205Z,50.22
2022-08-03T00:21:41.745Z,50.21
2022-08-03T00:26:47.679Z,50.22
2022-08-03T00:32:00.181Z,50.47
2022-08-03T00:37:00.696Z,50.44
2022-08-03T00:42:07.050Z,50.71
2022-08-03T00:47:13.469Z,50.76
2022-08-03T00:52:19.308Z,51.02
2022-08-03T00:57:25.173Z,51.41
2022-08-03T01:02:31.181Z,51.37
2022-08-03T01:08:02.137Z,51.63
2022-08-03T01:14:01.433Z,51.55
2022-08-03T01:18:53.616Z,51.74
2022-08-03T01:24:04.946Z,51.88
2022-08-03T01:29:33.215Z,52.01
2022-08-03T01:34:42.030Z,52.13
2022-08-03T01:39:48.316Z,52.15
2022-08-03T01:44:55.821Z,52.37
2022-08-03T01:50:03.165Z,52.36
2022-08-03T01:55:10.855Z,52.47
2022-08-03T02:00:17.557Z,52.45
2022-08-03T02:05:26.603Z,52.51
2022-08-03T02:10:35.919Z,52.47
2022-08-03T02:15:43.439Z,52.35
2022-08-03T02:20:49.903Z,52.32
2022-08-03T02:25:59.918Z,52.20
2022-08-03T02:31:08.997Z,52.11
2022-08-03T02:36:15.751Z,51.98
2022-08-03T02:41:24.316Z,51.83
2022-08-03T02:46:33.757Z,51.93
2022-08-03T02:51:41.472Z,51.83
2022-08-03T02:56:49.661Z,52.03
2022-08-03T03:01:56.623Z,52.08
2022-08-03T03:07:03.694Z,52.08
2022-08-03T03:12:13.530Z,52.19
2022-08-03T03:17:20.865Z,52.11
2022-08-03T03:22:28.175Z,52.44
2022-08-03T03:27:35.672Z,52.51
2022-08-03T03:32:41.556Z,52.56
2022-08-03T03:37:47.213Z,52.91
2022-08-03T03:42:53.203Z,52.89
2022-08-03T03:48:00.798Z,53.08
2022-08-03T03:53:06.469Z,53.18
2022-08-03T03:58:13.668Z,53.37
2022-08-03T04:03:19.200Z,53.62
2022-08-03T04:08:43.021Z,53.59
2022-08-03T04:14:17.773Z,53.83
2022-08-03T04:19:26.311Z,54.17
2022-08-03T04:24:37.602Z,54.36
2022-08-03T04:29:48.223Z,54.55
2022-08-03T04:34:54.584Z,55.25
2022-08-03T04:40:03.115Z,55.74
2022-08-03T04:45:11.529Z,55.96
2022-08-03T04:50:21.336Z,55.53
2022-08-03T04:55:32.293Z,55.56
2022-08-03T05:00:38.168Z,55.55
2022-08-03T05:05:50.641Z,55.97
2022-08-03T05:10:50.936Z,56.06
2022-08-03T05:15:56.471Z,55.85
2022-08-03T05:21:02.167Z,55.42
2022-08-03T05:26:07.733Z,54.79
2022-08-03T05:31:13.907Z,54.45
2022-08-03T05:36:19.481Z,54.10
2022-08-03T05:41:37.121Z,54.12
2022-08-03T05:46:32.457Z,54.05
2022-08-03T05:51:38.011Z,53.69
2022-08-03T05:56:43.708Z,53.97
2022-08-03T06:01:49.571Z,53.32
2022-08-03T06:06:55.221Z,53.46
2022-08-03T06:12:00.780Z,53.08
2022-08-03T06:17:06.347Z,52.62
2022-08-03T06:22:12.011Z,52.45
2022-08-03T06:27:19.583Z,52.04
2022-08-03T06:32:26.826Z,51.46
2022-08-03T06:37:32.603Z,50.71
2022-08-03T06:42:38.157Z,49.82
2022-08-03T06:47:44.545Z,48.98
2022-08-03T06:52:50.206Z,48.01
2022-08-03T06:57:56.002Z,47.30
2022-08-03T07:03:03.179Z,46.63
2022-08-03T07:08:08.747Z,45.63
2022-08-03T07:13:14.316Z,45.34
2022-08-03T07:18:29.167Z,44.75
2022-08-03T07:23:27.691Z,44.20
2022-08-03T07:28:33.358Z,43.71
2022-08-03T07:33:42.066Z,43.61
2022-08-03T07:38:47.659Z,43.20
2022-08-03T07:43:53.241Z,42.92
2022-08-03T07:48:59.434Z,42.45
2022-08-03T07:54:06.108Z,42.46
2022-08-03T07:59:11.666Z,41.75
2022-08-03T08:04:17.189Z,41.91
2022-08-03T08:09:23.618Z,41.40
2022-08-03T08:14:29.177Z,41.08
2022-08-03T08:19:35.272Z,40.51
2022-08-03T08:24:44.219Z,39.78
2022-08-03T08:29:54.543Z,39.42
2022-08-03T08:34:58.084Z,38.91
2022-08-03T08:40:03.672Z,38.32
2022-08-03T08:45:10.868Z,37.54
2022-08-03T08:50:27.513Z,37.18
2022-08-03T08:55:30.263Z,37.15
2022-08-03T09:00:37.486Z,36.82
2022-08-03T09:05:55.862Z,36.49
2022-08-03T09:10:54.036Z,36.65
2022-08-03T09:16:20.907Z,36.62
2022-08-03T09:21:32.014Z,36.20
2022-08-03T09:26:39.156Z,35.54
2022-08-03T09:31:47.413Z,35.23
2022-08-03T09:36:54.358Z,34.64
2022-08-03T09:42:08.933Z,34.54
2022-08-03T09:47:33.105Z,34.64
2022-08-03T09:52:52.122Z,34.45
2022-08-03T09:57:48.126Z,34.51
2022-08-03T10:02:56.648Z,34.31
2022-08-03T10:08:02.232Z,34.31
2022-08-03T10:13:07.783Z,34.17
2022-08-03T10:18:13.864Z,33.69
2022-08-03T10:23:20.648Z,33.78
2022-08-03T10:28:28.422Z,33.39
2022-08-03T10:33:49.773Z,33.60
2022-08-03T10:38:55.264Z,33.38
2022-08-03T10:44:13.622Z,32.76
2022-08-03T10:49:34.846Z,32.87
2022-08-03T10:54:43.951Z,32.85
2022-08-03T10:59:59.335Z,32.62
2022-08-03T11:05:27.400Z,32.33
2022-08-03T11:10:33.742Z,32.67
2022-08-03T11:15:39.718Z,32.69
2022-08-03T11:21:00.074Z,32.74
2022-08-03T11:26:19.358Z,32.75
2022-08-03T11:37:13.280Z,32.21
2022-08-03T11:42:29.295Z,32.44
2022-08-03T11:47:37.849Z,32.09
2022-08-03T11:52:45.244Z,31.99
2022-08-03T11:59:17.273Z,31.72
2022-08-03T12:03:07.808Z,31.71
2022-08-03T12:08:15.766Z,31.77
2022-08-03T12:14:36.753Z,31.31
2022-08-03T12:18:30.875Z,31.81
2022-08-03T12:23:37.946Z,31.09
2022-08-03T12:28:50.869Z,30.86
2022-08-03T12:34:05.233Z,31.53
2022-08-03T12:39:12.124Z,31.20
2022-08-03T12:44:17.770Z,31.06
2022-08-03T12:49:23.439Z,30.51
2022-08-03T12:54:35.312Z,30.21
2022-08-03T12:59:53.122Z,30.26
2022-08-03T13:04:56.804Z,29.96
2022-08-03T13:10:07.918Z,29.62
2022-08-03T13:15:10.775Z,29.74
2022-08-03T13:20:16.293Z,29.34
2022-08-03T13:25:21.921Z,28.45
2022-08-03T13:30:30.073Z,29.13
2022-08-03T13:35:34.722Z,28.84
2022-08-03T13:40:41.692Z,28.48
2022-08-03T13:45:52.417Z,28.97
2022-08-03T13:50:54.872Z,28.79
2022-08-03T13:56:00.796Z,28.54
2022-08-03T14:01:07.153Z,27.52
2022-08-03T14:06:12.817Z,28.56
2022-08-03T14:11:19.097Z,27.49
2022-08-03T14:16:24.761Z,28.25
2022-08-03T14:21:30.307Z,27.76
2022-08-03T14:26:35.880Z,27.56
2022-08-03T14:32:09.787Z,27.47
2022-08-03T14:36:49.245Z,27.17
2022-08-03T14:41:54.814Z,27.08
2022-08-03T14:47:00.372Z,26.85
2022-08-03T14:52:06.948Z,27.05
2022-08-03T14:57:12.581Z,27.09
2022-08-03T15:02:23.384Z,27.00
2022-08-03T15:07:25.506Z,26.55
2022-08-03T15:12:31.273Z,26.54
2022-08-03T15:17:42.853Z,26.15
2022-08-03T15:22:45.604Z,26.41
2022-08-03T15:28:04.138Z,26.31
2022-08-03T15:33:02.049Z,26.14
2022-08-03T15:38:09.620Z,25.75
2022-08-03T15:43:15.424Z,25.90
2022-08-03T15:48:26.639Z,25.65
2022-08-03T15:53:29.917Z,25.28
2022-08-03T15:59:10.093Z,25.02
2022-08-03T16:03:43.615Z,25.02
2022-08-03T16:08:51.149Z,25.72
2022-08-03T16:14:05.537Z,24.46
2022-08-03T16:19:05.545Z,23.90
2022-08-03T16:24:15.225Z,24.14
2022-08-03T16:29:23.128Z,24.22
2022-08-03T16:34:26.009Z,24.65
2022-08-03T16:39:36.284Z,24.77
2022-08-03T16:44:47.726Z,24.60
2022-08-03T16:49:56.462Z,25.06
2022-08-03T16:55:01.380Z,24.64
2022-08-03T17:00:10.641Z,25.02
2022-08-03T17:05:16.501Z,24.60
2022-08-03T17:10:27.197Z,24.66
2022-08-03T17:15:57.262Z,24.90
2022-08-03T17:20:41.197Z,25.20
2022-08-03T17:26:01.509Z,25.46
2022-08-03T17:31:22.973Z,25.68
2022-08-03T17:41:39.506Z,26.57
2022-08-03T17:46:46.686Z,26.95
2022-08-03T17:51:59.515Z,27.38
2022-08-03T17:57:22.383Z,28.10
2022-08-03T18:08:28.696Z,29.12
2022-08-03T18:13:58.110Z,29.51
2022-08-03T18:19:09.223Z,29.80
2022-08-03T18:24:12.741Z,29.77
2022-08-03T18:29:20.901Z,30.03
2022-08-03T18:34:32.547Z,30.40
2022-08-03T18:39:49.475Z,30.90
2022-08-03T18:44:53.861Z,31.44
2022-08-03T18:50:19.199Z,31.83
2022-08-03T18:55:33.578Z,32.41
2022-08-03T19:00:54.305Z,32.88
2022-08-03T19:06:05.887Z,33.29
2022-08-03T19:11:07.678Z,33.44
2022-08-03T19:16:18.825Z,33.67
2022-08-03T19:21:25.139Z,33.73
2022-08-03T19:26:31.487Z,33.65
2022-08-03T19:31:40.880Z,32.65
2022-08-03T19:36:49.223Z,33.11
2022-08-03T19:41:57.711Z,33.22
2022-08-03T19:47:17.098Z,33.26
2022-08-03T19:52:24.335Z,33.45
2022-08-03T19:57:31.989Z,33.83
2022-08-03T20:02:37.782Z,34.03
2022-08-03T20:07:47.683Z,34.42
2022-08-03T20:12:50.981Z,33.69
2022-08-03T20:17:58.842Z,34.34
2022-08-03T20:23:13.991Z,34.38
2022-08-03T20:28:28.570Z,34.44
2022-08-03T20:33:48.467Z,34.68
2022-08-03T20:38:43.653Z,35.05
2022-08-03T20:43:51.078Z,35.31
2022-08-03T20:48:59.049Z,35.52
2022-08-03T20:54:20.745Z,35.62
2022-08-03T20:59:15.364Z,35.68
2022-08-03T21:04:21.638Z,35.85
2022-08-03T21:09:39.835Z,35.84
2022-08-03T21:14:51.885Z,35.97
2022-08-03T21:19:57.048Z,36.02
2022-08-03T21:25:05.878Z,36.11
2022-08-03T21:30:12.863Z,36.08
2022-08-03T21:35:19.295Z,36.01
2022-08-03T21:40:24.867Z,36.02
2022-08-03T21:45:30.540Z,35.96
2022-08-03T21:50:38.234Z,36.02
2022-08-03T21:55:46.788Z,35.97
2022-08-03T22:00:52.974Z,35.93
2022-08-03T22:06:04.924Z,35.93
2022-08-03T22:11:06.855Z,35.96
2022-08-03T22:16:12.859Z,35.82
2022-08-03T22:21:27.963Z,35.83
2022-08-03T22:26:34.700Z,35.76
2022-08-03T22:31:58.211Z,35.69
2022-08-03T22:36:46.249Z,35.70
2022-08-03T22:41:52.374Z,35.65
2022-08-03T22:46:59.233Z,35.67
2022-08-03T22:52:04.796Z,35.63
2022-08-03T22:57:11.390Z,35.62
2022-08-03T23:02:21.558Z,35.68
2022-08-03T23:07:32.743Z,35.63
2022-08-03T23:12:40.463Z,35.65
2022-08-03T23:17:57.978Z,35.57
2022-08-03T23:23:04.343Z,35.56
2022-08-03T23:28:12.178Z,35.49
2022-08-03T23:33:19.510Z,35.46
2022-08-03T23:38:28.048Z,35.43
2022-08-03T23:43:51.640Z,35.44
2022-08-03T23:48:45.217Z,35.40
2022-08-03T23:54:02.869Z,35.38
2022-08-03T23:59:17.337Z,35.48
